sensor_id;sensor_type;location;lat;lon;timestamp;P1;durP1;ratioP1;P2;durP2;ratioP2
79456;SDS011;68908;43.654;3.884;2023-04-06T15:40:24;4.47;;;1.60;;
79456;SDS011;68908;43.654;3.884;2023-04-06T15:42:50;7.13;;;1.90;;
79456;SDS011;68908;43.654;3.884;2023-04-06T15:45:15;8.95;;;1.67;;
79456;SDS011;68908;43.654;3.884;2023-04-06T15:47:41;7.88;;;1.67;;
79456;SDS011;68908;43.654;3.884;2023-04-06T15:50:08;5.85;;;1.90;;
79456;SDS011;68908;43.654;3.884;2023-04-06T15:52:35;8.27;;;1.60;;
79456;SDS011;68908;43.654;3.884;2023-04-06T15:55:02;3.63;;;1.52;;
79456;SDS011;68908;43.654;3.884;2023-04-06T15:57:28;5.63;;;2.10;;
79456;SDS011;68908;43.654;3.884;2023-04-06T15:59:54;8.60;;;1.88;;
79456;SDS011;68908;43.654;3.884;2023-04-06T16:02:20;4.22;;;1.65;;
79456;SDS011;68908;43.654;3.884;2023-04-06T16:04:47;4.47;;;1.70;;
79456;SDS011;68908;43.654;3.884;2023-04-06T16:07:13;4.30;;;1.67;;
79456;SDS011;68908;43.654;3.884;2023-04-06T16:09:39;3.53;;;1.50;;
79456;SDS011;68908;43.654;3.884;2023-04-06T16:12:04;4.75;;;1.70;;
79456;SDS011;68908;43.654;3.884;2023-04-06T16:14:30;5.55;;;1.70;;
79456;SDS011;68908;43.654;3.884;2023-04-06T16:16:55;3.97;;;1.75;;
79456;SDS011;68908;43.654;3.884;2023-04-06T16:19:21;5.30;;;1.30;;
79456;SDS011;68908;43.654;3.884;2023-04-06T16:21:46;4.57;;;1.70;;
79456;SDS011;68908;43.654;3.884;2023-04-06T16:24:11;4.35;;;1.50;;
79456;SDS011;68908;43.654;3.884;2023-04-06T16:26:37;4.55;;;1.77;;
79456;SDS011;68908;43.654;3.884;2023-04-06T16:29:03;8.48;;;1.85;;
79456;SDS011;68908;43.654;3.884;2023-04-06T16:31:29;4.60;;;1.88;;
79456;SDS011;68908;43.654;3.884;2023-04-06T16:33:56;7.38;;;2.15;;
79456;SDS011;68908;43.654;3.884;2023-04-06T16:36:26;8.10;;;2.30;;
79456;SDS011;68908;43.654;3.884;2023-04-06T16:38:56;4.80;;;1.98;;
79456;SDS011;68908;43.654;3.884;2023-04-06T16:41:23;7.38;;;1.98;;
79456;SDS011;68908;43.654;3.884;2023-04-06T16:43:48;7.05;;;1.98;;
79456;SDS011;68908;43.654;3.884;2023-04-06T16:46:14;4.53;;;1.83;;
79456;SDS011;68908;43.654;3.884;2023-04-06T16:48:41;8.13;;;1.90;;
79456;SDS011;68908;43.654;3.884;2023-04-06T16:51:06;9.23;;;1.67;;
79456;SDS011;68908;43.654;3.884;2023-04-06T16:53:33;5.93;;;1.75;;
79456;SDS011;68908;43.654;3.884;2023-04-06T16:56:01;6.10;;;2.00;;
79456;SDS011;68908;43.654;3.884;2023-04-06T16:58:29;7.15;;;1.70;;
79456;SDS011;68908;43.654;3.884;2023-04-06T17:00:54;7.18;;;1.80;;
79456;SDS011;68908;43.654;3.884;2023-04-06T17:03:19;5.93;;;2.10;;
79456;SDS011;68908;43.654;3.884;2023-04-06T17:05:45;5.25;;;1.70;;
79456;SDS011;68908;43.654;3.884;2023-04-06T17:08:10;6.30;;;1.67;;
79456;SDS011;68908;43.654;3.884;2023-04-06T17:10:36;7.95;;;1.92;;
79456;SDS011;68908;43.654;3.884;2023-04-06T17:13:01;4.60;;;1.83;;
79456;SDS011;68908;43.654;3.884;2023-04-06T17:15:26;5.13;;;1.73;;
79456;SDS011;68908;43.654;3.884;2023-04-06T17:17:53;8.05;;;1.83;;
79456;SDS011;68908;43.654;3.884;2023-04-06T17:20:19;6.28;;;1.80;;
79456;SDS011;68908;43.654;3.884;2023-04-06T17:22:44;4.80;;;1.70;;
79456;SDS011;68908;43.654;3.884;2023-04-06T17:25:11;5.05;;;1.70;;
79456;SDS011;68908;43.654;3.884;2023-04-06T17:27:37;5.50;;;1.70;;
79456;SDS011;68908;43.654;3.884;2023-04-06T17:30:02;5.00;;;1.73;;
79456;SDS011;68908;43.654;3.884;2023-04-06T17:32:31;5.47;;;2.15;;
79456;SDS011;68908;43.654;3.884;2023-04-06T17:34:57;4.10;;;1.70;;
79456;SDS011;68908;43.654;3.884;2023-04-06T17:37:22;6.93;;;1.73;;
79456;SDS011;68908;43.654;3.884;2023-04-06T17:39:48;5.65;;;1.80;;
79456;SDS011;68908;43.654;3.884;2023-04-06T17:42:13;3.60;;;1.73;;
79456;SDS011;68908;43.654;3.884;2023-04-06T17:44:38;5.85;;;1.65;;
79456;SDS011;68908;43.654;3.884;2023-04-06T17:47:04;5.80;;;1.80;;
79456;SDS011;68908;43.654;3.884;2023-04-06T17:49:30;4.35;;;1.55;;
79456;SDS011;68908;43.654;3.884;2023-04-06T17:51:55;3.95;;;1.63;;
79456;SDS011;68908;43.654;3.884;2023-04-06T17:54:20;4.95;;;1.65;;
79456;SDS011;68908;43.654;3.884;2023-04-06T17:56:46;6.03;;;1.70;;
79456;SDS011;68908;43.654;3.884;2023-04-06T17:59:13;5.18;;;1.63;;
79456;SDS011;68908;43.654;3.884;2023-04-06T18:01:39;6.00;;;1.70;;
79456;SDS011;68908;43.654;3.884;2023-04-06T18:04:05;5.10;;;1.83;;
79456;SDS011;68908;43.654;3.884;2023-04-06T18:06:30;4.13;;;1.70;;
79456;SDS011;68908;43.654;3.884;2023-04-06T18:08:57;8.57;;;1.77;;
79456;SDS011;68908;43.654;3.884;2023-04-06T18:11:23;4.88;;;2.03;;
79456;SDS011;68908;43.654;3.884;2023-04-06T18:13:49;5.50;;;1.73;;
79456;SDS011;68908;43.654;3.884;2023-04-06T18:16:18;4.32;;;1.70;;
79456;SDS011;68908;43.654;3.884;2023-04-06T18:18:45;5.28;;;1.65;;
79456;SDS011;68908;43.654;3.884;2023-04-06T18:21:10;4.03;;;1.70;;
79456;SDS011;68908;43.654;3.884;2023-04-06T18:23:35;6.60;;;1.63;;
79456;SDS011;68908;43.654;3.884;2023-04-06T18:26:02;5.45;;;1.75;;
79456;SDS011;68908;43.654;3.884;2023-04-06T18:28:28;4.68;;;1.90;;
79456;SDS011;68908;43.654;3.884;2023-04-06T18:30:55;4.50;;;1.67;;
79456;SDS011;68908;43.654;3.884;2023-04-06T18:33:21;6.30;;;1.73;;
79456;SDS011;68908;43.654;3.884;2023-04-06T18:35:47;6.32;;;2.20;;
79456;SDS011;68908;43.654;3.884;2023-04-06T18:38:12;5.15;;;2.05;;
79456;SDS011;68908;43.654;3.884;2023-04-06T18:40:38;6.57;;;1.70;;
79456;SDS011;68908;43.654;3.884;2023-04-06T18:43:04;4.82;;;1.85;;
79456;SDS011;68908;43.654;3.884;2023-04-06T18:45:32;5.80;;;2.00;;
79456;SDS011;68908;43.654;3.884;2023-04-06T18:47:59;4.60;;;1.80;;
79456;SDS011;68908;43.654;3.884;2023-04-06T18:50:25;4.82;;;2.03;;
79456;SDS011;68908;43.654;3.884;2023-04-06T18:52:51;5.40;;;2.15;;
79456;SDS011;68908;43.654;3.884;2023-04-06T18:55:17;5.45;;;2.25;;
79456;SDS011;68908;43.654;3.884;2023-04-06T18:57:46;6.35;;;2.00;;
79456;SDS011;68908;43.654;3.884;2023-04-06T19:00:13;7.55;;;3.00;;
79456;SDS011;68908;43.654;3.884;2023-04-06T19:02:40;4.85;;;2.05;;
79456;SDS011;68908;43.654;3.884;2023-04-06T19:05:05;5.90;;;2.50;;
79456;SDS011;68908;43.654;3.884;2023-04-06T19:07:31;5.43;;;2.15;;
79456;SDS011;68908;43.654;3.884;2023-04-06T19:09:58;7.32;;;2.83;;
79456;SDS011;68908;43.654;3.884;2023-04-06T19:12:23;6.20;;;2.40;;
79456;SDS011;68908;43.654;3.884;2023-04-06T19:14:49;6.53;;;2.55;;
79456;SDS011;68908;43.654;3.884;2023-04-06T19:17:16;6.65;;;2.97;;
79456;SDS011;68908;43.654;3.884;2023-04-06T19:19:42;5.97;;;2.90;;
79456;SDS011;68908;43.654;3.884;2023-04-06T19:22:09;7.82;;;2.85;;
79456;SDS011;68908;43.654;3.884;2023-04-06T19:24:35;7.10;;;3.03;;
79456;SDS011;68908;43.654;3.884;2023-04-06T19:27:00;7.45;;;3.15;;
79456;SDS011;68908;43.654;3.884;2023-04-06T19:29:26;10.88;;;3.63;;
